createdAt,value
2019-03-23T00:10:36.721Z,3.90
2019-03-23T00:20:29.458Z,3.40
2019-03-23T00:23:02.823Z,3.30
2019-03-23T00:25:36.226Z,3.20
2019-03-23T00:28:09.614Z,3.30
2019-03-23T00:33:48.432Z,3.40
2019-03-23T00:36:21.836Z,3.40
2019-03-23T00:38:55.034Z,3.50
2019-03-23T00:41:28.433Z,3.40
2019-03-23T00:44:01.812Z,3.40
2019-03-23T00:46:35.232Z,3.40
2019-03-23T00:52:00.770Z,3.40
2019-03-23T00:54:34.038Z,3.40
2019-03-23T00:57:07.441Z,3.40
2019-03-23T00:59:40.811Z,3.40
2019-03-23T01:02:14.225Z,3.20
2019-03-23T01:04:52.284Z,3.40
2019-03-23T01:07:25.606Z,3.30
2019-03-23T01:10:01.207Z,3.10
2019-03-23T01:12:34.627Z,3.10
2019-03-23T01:15:13.475Z,3.30
2019-03-23T01:17:46.897Z,3.40
2019-03-23T01:20:20.275Z,3.50
2019-03-23T01:22:54.017Z,3.50
2019-03-23T01:25:27.394Z,3.50
2019-03-23T01:28:00.738Z,3.90
2019-03-23T01:33:26.074Z,3.60
2019-03-23T01:35:59.496Z,3.60
2019-03-23T01:38:32.866Z,3.70
2019-03-23T01:41:06.368Z,3.70
2019-03-23T01:43:39.756Z,3.70
2019-03-23T01:46:13.487Z,3.60
2019-03-23T01:51:42.981Z,3.30
2019-03-23T01:54:17.534Z,3.60
2019-03-23T01:57:10.645Z,3.60
2019-03-23T01:59:44.883Z,3.60
2019-03-23T02:02:18.301Z,3.60
2019-03-23T02:04:51.601Z,3.60
2019-03-23T02:07:26.013Z,3.70
2019-03-23T02:12:50.785Z,3.70
2019-03-23T02:15:24.196Z,3.70
2019-03-23T02:17:57.589Z,3.50
2019-03-23T02:20:30.987Z,3.50
2019-03-23T02:23:04.617Z,3.50
2019-03-23T02:25:37.999Z,3.50
2019-03-23T02:28:23.572Z,3.50
2019-03-23T02:30:51.624Z,3.50
2019-03-23T02:33:26.003Z,3.50
2019-03-23T02:35:59.298Z,3.50
2019-03-23T02:38:32.719Z,3.50
2019-03-23T02:41:06.100Z,3.50
2019-03-23T02:43:50.099Z,3.50
2019-03-23T02:46:23.545Z,3.50
2019-03-23T02:51:57.916Z,3.40
2019-03-23T02:54:37.252Z,3.20
2019-03-23T02:57:10.654Z,3.30
2019-03-23T02:59:44.053Z,3.20
2019-03-23T03:02:24.683Z,3.20
2019-03-23T03:04:58.110Z,3.10
2019-03-23T03:07:41.923Z,3.20
2019-03-23T03:10:10.154Z,3.00
2019-03-23T03:12:43.463Z,3.10
2019-03-23T03:15:16.957Z,3.10
2019-03-23T03:17:51.533Z,3.10
2019-03-23T03:20:24.963Z,3.00
2019-03-23T03:22:58.338Z,3.00
2019-03-23T03:25:31.733Z,2.80
2019-03-23T03:28:05.176Z,2.70
2019-03-23T03:30:38.584Z,2.70
2019-03-23T03:33:21.738Z,2.80
2019-03-23T03:35:55.144Z,2.50
2019-03-23T03:38:30.104Z,2.60
2019-03-23T03:41:03.475Z,2.50
2019-03-23T03:43:36.867Z,2.50
2019-03-23T03:46:10.242Z,2.40
2019-03-23T03:48:43.651Z,2.20
2019-03-23T03:51:17.035Z,2.20
2019-03-23T03:53:50.478Z,2.00
2019-03-23T03:56:23.771Z,1.90
2019-03-23T03:58:57.129Z,1.50
2019-03-23T04:01:30.480Z,1.30
2019-03-23T04:04:08.065Z,1.50
2019-03-23T04:06:41.932Z,1.50
2019-03-23T04:09:15.308Z,1.60
2019-03-23T04:11:52.808Z,1.60
2019-03-23T04:14:28.938Z,1.60
2019-03-23T04:17:02.296Z,1.00
2019-03-23T04:19:36.698Z,0.80
2019-03-23T04:22:10.073Z,0.70
2019-03-23T04:24:43.473Z,0.50
2019-03-23T04:27:16.864Z,0.70
2019-03-23T04:29:50.236Z,0.90
2019-03-23T04:32:25.839Z,0.90
2019-03-23T04:34:59.228Z,1.00
2019-03-23T04:37:33.404Z,1.10
2019-03-23T04:40:13.014Z,1.10
2019-03-23T04:42:46.339Z,1.10
2019-03-23T04:45:19.763Z,1.10
2019-03-23T04:48:08.154Z,1.10
2019-03-23T04:50:41.565Z,1.00
2019-03-23T04:53:14.935Z,1.00
2019-03-23T04:55:51.273Z,1.00
2019-03-23T04:58:24.716Z,1.00
2019-03-23T05:00:59.371Z,1.00
2019-03-23T05:03:32.795Z,0.90
2019-03-23T05:06:06.190Z,0.90
2019-03-23T05:08:42.878Z,0.90
2019-03-23T05:11:14.878Z,0.80
2019-03-23T05:14:05.309Z,0.90
2019-03-23T05:16:38.662Z,0.80
2019-03-23T05:19:12.065Z,0.70
2019-03-23T05:21:45.411Z,0.70
2019-03-23T05:24:19.074Z,0.80
2019-03-23T05:26:52.482Z,1.00
2019-03-23T05:29:25.811Z,1.00
2019-03-23T05:32:08.475Z,1.00
2019-03-23T05:34:35.621Z,1.10
2019-03-23T05:37:12.733Z,1.00
2019-03-23T05:39:46.142Z,1.20
2019-03-23T05:42:19.747Z,1.30
2019-03-23T05:44:53.141Z,1.40
2019-03-23T05:47:26.528Z,1.40
2019-03-23T05:49:59.923Z,1.50
2019-03-23T05:52:34.189Z,1.50
2019-03-23T05:55:07.999Z,1.60
2019-03-23T05:57:42.503Z,1.70
2019-03-23T06:00:35.073Z,1.80
2019-03-23T06:03:15.394Z,1.80
2019-03-23T06:05:45.831Z,1.80
2019-03-23T06:08:54.575Z,1.90
2019-03-23T06:11:21.138Z,2.00
2019-03-23T06:13:54.509Z,2.00
2019-03-23T06:16:27.926Z,2.10
2019-03-23T06:19:01.292Z,2.20
2019-03-23T06:21:34.691Z,2.30
2019-03-23T06:24:08.066Z,2.40
2019-03-23T06:26:51.739Z,2.40
2019-03-23T06:29:26.300Z,2.50
2019-03-23T06:31:59.721Z,2.60
2019-03-23T06:34:33.134Z,2.70
2019-03-23T06:37:06.520Z,2.80
2019-03-23T06:39:39.940Z,2.90
2019-03-23T06:42:13.340Z,3.10
2019-03-23T06:44:54.050Z,3.20
2019-03-23T06:47:28.425Z,3.30
2019-03-23T06:50:02.074Z,3.40
2019-03-23T06:52:35.306Z,3.50
2019-03-23T06:55:10.598Z,3.70
2019-03-23T06:57:48.825Z,3.90
2019-03-23T07:00:23.620Z,4.00
2019-03-23T07:05:38.579Z,4.20
2019-03-23T07:08:11.995Z,4.50
2019-03-23T07:10:49.729Z,4.60
2019-03-23T07:13:23.264Z,4.80
2019-03-23T07:23:06.005Z,5.30
2019-03-23T07:29:19.122Z,5.70
2019-03-23T07:31:52.565Z,5.80
2019-03-23T07:34:31.030Z,5.90
2019-03-23T07:37:04.521Z,6.00
2019-03-23T07:39:37.906Z,6.20
2019-03-23T07:42:11.285Z,6.40
2019-03-23T07:44:45.768Z,6.40
2019-03-23T07:47:20.615Z,6.60
2019-03-23T07:49:54.347Z,6.70
2019-03-23T07:52:27.756Z,6.80
2019-03-23T07:55:09.375Z,6.90
2019-03-23T07:57:42.842Z,7.00
2019-03-23T08:00:23.505Z,7.20
2019-03-23T08:02:56.953Z,7.20
2019-03-23T08:05:32.348Z,7.40
2019-03-23T08:08:09.728Z,7.50
2019-03-23T08:13:44.082Z,7.70
2019-03-23T08:16:19.219Z,7.70
2019-03-23T08:18:53.035Z,7.80
2019-03-23T08:21:26.492Z,8.00
2019-03-23T08:23:59.917Z,8.00
2019-03-23T08:26:37.686Z,8.10
2019-03-23T08:29:13.964Z,8.20
2019-03-23T08:31:47.385Z,8.30
2019-03-23T08:34:20.783Z,8.30
2019-03-23T08:36:55.785Z,8.40
2019-03-23T08:39:30.194Z,8.60
2019-03-23T08:42:20.062Z,8.60
2019-03-23T08:44:54.019Z,8.60
2019-03-23T08:47:27.585Z,8.70
2019-03-23T08:50:00.947Z,8.80
2019-03-23T08:52:34.407Z,8.90
2019-03-23T08:55:08.212Z,8.90
2019-03-23T08:57:41.779Z,9.00
2019-03-23T09:00:17.807Z,9.10
2019-03-23T09:02:52.609Z,9.20
2019-03-23T09:05:25.963Z,9.30
2019-03-23T09:07:59.409Z,9.30
2019-03-23T09:10:32.826Z,9.40
2019-03-23T09:13:06.662Z,9.40
2019-03-23T09:15:41.335Z,9.50
2019-03-23T09:18:14.833Z,9.60
2019-03-23T09:20:52.418Z,9.80
2019-03-23T09:23:27.110Z,9.80
2019-03-23T09:26:00.435Z,9.90
2019-03-23T09:28:35.157Z,10.00
2019-03-23T09:31:09.820Z,10.10
2019-03-23T09:33:43.301Z,10.30
2019-03-23T09:42:46.658Z,10.40
2019-03-23T09:45:21.018Z,10.50
2019-03-23T09:47:55.682Z,10.40
2019-03-23T09:50:34.217Z,10.50
2019-03-23T09:53:07.777Z,10.70
2019-03-23T09:56:18.764Z,10.60
2019-03-23T09:58:52.162Z,10.70
2019-03-23T10:01:26.961Z,10.80
2019-03-23T10:04:02.806Z,10.80
2019-03-23T10:06:37.666Z,11.00
2019-03-23T10:09:13.863Z,11.00
2019-03-23T10:11:48.528Z,11.20
2019-03-23T10:14:38.366Z,11.10
2019-03-23T10:17:11.981Z,11.10
2019-03-23T10:19:45.354Z,11.10
2019-03-23T10:22:22.236Z,11.20
2019-03-23T10:24:55.773Z,11.10
2019-03-23T10:27:29.205Z,11.20
2019-03-23T10:30:02.706Z,11.20
2019-03-23T10:32:36.206Z,11.40
2019-03-23T10:35:12.716Z,11.50
2019-03-23T10:37:47.727Z,11.60
2019-03-23T10:40:31.721Z,11.80
2019-03-23T10:43:39.074Z,11.90
2019-03-23T10:46:12.474Z,11.90
2019-03-23T10:48:45.852Z,12.10
2019-03-23T10:55:03.747Z,12.10
2019-03-23T10:57:37.018Z,12.30
2019-03-23T11:00:13.734Z,12.30
2019-03-23T11:02:46.988Z,12.30
2019-03-23T11:05:20.351Z,12.20
2019-03-23T11:07:56.357Z,12.40
2019-03-23T11:10:29.665Z,12.60
2019-03-23T11:13:03.016Z,12.70
2019-03-23T11:15:36.354Z,12.80
2019-03-23T11:18:09.716Z,12.80
2019-03-23T11:20:47.217Z,13.00
2019-03-23T11:23:22.551Z,12.90
2019-03-23T11:25:56.101Z,12.80
2019-03-23T11:28:30.115Z,13.00
2019-03-23T11:31:03.763Z,12.80
2019-03-23T11:33:38.317Z,13.00
2019-03-23T11:36:11.755Z,13.20
2019-03-23T11:38:45.455Z,13.40
2019-03-23T11:41:18.893Z,13.50
2019-03-23T11:43:53.312Z,13.50
2019-03-23T11:46:26.731Z,13.70
2019-03-23T11:49:00.205Z,13.90
2019-03-23T11:51:36.586Z,14.00
2019-03-23T11:54:10.009Z,14.10
2019-03-23T11:56:45.356Z,13.70
2019-03-23T11:59:18.758Z,14.00
2019-03-23T12:01:53.521Z,14.10
2019-03-23T12:04:29.514Z,14.30
2019-03-23T12:07:04.232Z,14.40
2019-03-23T12:09:37.608Z,14.40
2019-03-23T12:12:10.967Z,14.80
2019-03-23T12:14:44.522Z,14.80
2019-03-23T12:17:17.847Z,14.90
2019-03-23T12:19:51.159Z,15.00
2019-03-23T12:22:25.072Z,14.80
2019-03-23T12:25:04.115Z,15.10
2019-03-23T12:27:38.585Z,15.10
2019-03-23T12:30:16.534Z,15.30
2019-03-23T12:32:50.615Z,15.40
2019-03-23T12:35:26.878Z,15.40
2019-03-23T12:38:02.005Z,15.50
2019-03-23T12:40:36.546Z,15.60
2019-03-23T12:43:12.030Z,15.60
2019-03-23T12:45:50.547Z,15.50
2019-03-23T12:48:26.762Z,15.40
2019-03-23T12:51:00.442Z,14.90
2019-03-23T12:53:34.259Z,15.10
2019-03-23T12:56:09.397Z,15.50
2019-03-23T12:58:43.592Z,15.80
2019-03-23T13:01:17.049Z,16.00
2019-03-23T13:03:51.456Z,15.40
2019-03-23T13:06:25.708Z,15.80
2019-03-23T13:09:00.213Z,15.70
2019-03-23T13:11:35.458Z,16.10
2019-03-23T13:14:09.696Z,16.20
2019-03-23T13:16:46.129Z,15.80
2019-03-23T13:19:41.366Z,16.10
2019-03-23T13:22:14.696Z,16.40
2019-03-23T13:24:49.423Z,16.50
2019-03-23T13:27:22.820Z,16.70
2019-03-23T13:30:24.093Z,16.80
2019-03-23T13:35:56.892Z,16.90
2019-03-23T13:38:31.619Z,16.90
2019-03-23T13:41:08.641Z,16.90
2019-03-23T13:43:42.970Z,16.70
2019-03-23T13:46:16.400Z,17.00
2019-03-23T13:48:49.760Z,17.00
2019-03-23T13:51:23.169Z,17.10
2019-03-23T13:53:56.581Z,17.00
2019-03-23T13:56:32.015Z,17.00
2019-03-23T13:59:05.564Z,16.90
2019-03-23T14:01:39.464Z,16.90
2019-03-23T14:04:13.111Z,16.80
2019-03-23T14:06:47.399Z,16.70
2019-03-23T14:09:21.326Z,16.10
2019-03-23T14:11:58.113Z,15.50
2019-03-23T14:14:31.528Z,15.50
2019-03-23T14:17:08.797Z,15.80
2019-03-23T14:19:42.164Z,15.70
2019-03-23T14:22:17.986Z,15.40
2019-03-23T14:24:52.684Z,15.60
2019-03-23T14:30:14.548Z,15.50
2019-03-23T14:30:45.089Z,15.50
2019-03-23T14:32:51.511Z,15.60
2019-03-23T14:35:26.907Z,15.30
2019-03-23T14:39:04.855Z,15.10
2019-03-23T14:40:46.975Z,15.10
2019-03-23T14:43:21.225Z,15.00
2019-03-23T14:45:56.766Z,15.10
2019-03-23T14:48:31.614Z,15.10
2019-03-23T14:51:05.035Z,15.10
2019-03-23T14:53:38.477Z,15.00
2019-03-23T14:56:11.880Z,15.00
2019-03-23T14:58:45.280Z,15.00
2019-03-23T15:01:19.564Z,15.00
2019-03-23T15:03:56.211Z,15.00
2019-03-23T15:06:35.534Z,14.90
2019-03-23T15:09:08.856Z,14.90
2019-03-23T15:11:45.723Z,14.80
2019-03-23T15:14:20.672Z,14.80
2019-03-23T15:16:54.904Z,14.70
2019-03-23T15:19:29.735Z,14.60
2019-03-23T15:22:03.339Z,14.60
2019-03-23T15:24:37.238Z,14.50
2019-03-23T15:27:12.718Z,14.50
2019-03-23T15:29:48.228Z,14.50
2019-03-23T15:32:22.758Z,14.40
2019-03-23T15:34:57.059Z,14.40
2019-03-23T15:37:30.602Z,14.20
2019-03-23T15:40:07.519Z,14.20
2019-03-23T15:42:43.217Z,14.10
2019-03-23T15:45:17.767Z,14.00
2019-03-23T15:47:52.215Z,14.00
2019-03-23T15:50:25.673Z,13.90
2019-03-23T15:52:59.034Z,13.80
2019-03-23T15:55:36.553Z,13.70
2019-03-23T15:58:11.062Z,13.60
2019-03-23T16:00:44.805Z,13.50
2019-03-23T16:03:19.158Z,13.40
2019-03-23T16:05:52.500Z,13.30
2019-03-23T16:08:26.931Z,13.10
2019-03-23T16:11:00.717Z,13.00
2019-03-23T16:13:33.939Z,12.80
2019-03-23T16:16:09.511Z,12.60
2019-03-23T16:18:48.503Z,12.50
2019-03-23T16:21:21.762Z,12.30
2019-03-23T16:23:55.051Z,12.20
2019-03-23T16:26:31.361Z,12.10
2019-03-23T16:29:04.953Z,11.90
2019-03-23T16:31:38.877Z,11.90
2019-03-23T16:34:13.939Z,11.70
2019-03-23T16:36:47.330Z,11.60
2019-03-23T16:39:23.765Z,11.50
2019-03-23T16:41:57.445Z,11.40
2019-03-23T16:44:31.924Z,11.30
2019-03-23T16:47:06.537Z,11.10
2019-03-23T16:49:39.942Z,10.90
2019-03-23T16:52:32.014Z,10.80
2019-03-23T16:55:08.565Z,10.60
2019-03-23T16:57:44.136Z,10.30
2019-03-23T17:00:20.629Z,10.20
2019-03-23T17:02:54.022Z,9.70
2019-03-23T17:05:32.221Z,9.80
2019-03-23T17:08:05.783Z,9.70
2019-03-23T17:10:39.193Z,9.60
2019-03-23T17:13:12.531Z,9.60
2019-03-23T17:15:45.946Z,9.50
2019-03-23T17:18:19.361Z,9.40
2019-03-23T17:20:52.767Z,9.30
2019-03-23T17:23:28.475Z,9.30
2019-03-23T17:26:02.181Z,9.20
2019-03-23T17:28:36.646Z,9.10
2019-03-23T17:31:11.213Z,8.90
2019-03-23T17:33:45.549Z,8.70
2019-03-23T17:36:19.409Z,8.60
2019-03-23T17:38:52.857Z,8.40
2019-03-23T17:41:26.266Z,8.30
2019-03-23T17:44:00.039Z,8.10
2019-03-23T17:46:36.226Z,7.90
2019-03-23T17:49:09.613Z,7.90
2019-03-23T17:51:43.008Z,7.90
2019-03-23T17:54:16.437Z,7.70
2019-03-23T17:56:49.827Z,7.80
2019-03-23T17:59:23.277Z,7.70
2019-03-23T18:01:56.685Z,7.50
2019-03-23T18:04:31.603Z,7.30
2019-03-23T18:07:04.968Z,7.20
2019-03-23T18:09:39.859Z,7.00
2019-03-23T18:12:13.362Z,7.00
2019-03-23T18:14:50.410Z,7.00
2019-03-23T18:17:24.401Z,7.10
2019-03-23T18:19:57.847Z,7.00
2019-03-23T18:22:31.298Z,6.90
2019-03-23T18:25:06.405Z,6.80
2019-03-23T18:27:41.497Z,6.40
2019-03-23T18:30:39.555Z,6.50
2019-03-23T18:33:13.936Z,6.40
2019-03-23T18:35:52.266Z,6.50
2019-03-23T18:38:28.120Z,6.50
2019-03-23T18:41:04.609Z,6.40
2019-03-23T18:43:41.015Z,6.40
2019-03-23T18:46:15.247Z,6.30
2019-03-23T18:48:50.066Z,6.20
2019-03-23T18:51:25.164Z,6.00
2019-03-23T18:54:00.175Z,5.90
2019-03-23T18:56:35.168Z,5.90
2019-03-23T18:59:08.522Z,5.90
2019-03-23T19:01:43.087Z,5.60
2019-03-23T19:04:20.260Z,5.60
2019-03-23T19:06:54.883Z,5.70
2019-03-23T19:09:29.498Z,5.80
2019-03-23T19:12:03.242Z,5.50
2019-03-23T19:14:36.757Z,5.30
2019-03-23T19:17:12.366Z,5.30
2019-03-23T19:19:48.670Z,5.20
2019-03-23T19:22:23.059Z,5.30
2019-03-23T19:24:57.916Z,5.40
2019-03-23T19:27:33.115Z,5.20
2019-03-23T19:30:12.359Z,5.00
2019-03-23T19:32:47.733Z,5.00
2019-03-23T19:35:21.062Z,5.00
2019-03-23T19:37:56.366Z,5.00
2019-03-23T19:40:29.782Z,4.90
2019-03-23T19:43:06.202Z,4.90
2019-03-23T19:45:40.567Z,5.00
2019-03-23T19:48:14.978Z,4.80
2019-03-23T19:50:49.116Z,4.70
2019-03-23T19:53:23.533Z,4.70
2019-03-23T19:55:56.892Z,4.80
2019-03-23T19:58:30.329Z,4.90
2019-03-23T20:01:04.646Z,4.90
2019-03-23T20:03:44.666Z,5.00
2019-03-23T20:06:20.265Z,5.00
2019-03-23T20:08:54.254Z,4.90
2019-03-23T20:11:28.121Z,4.90
2019-03-23T20:14:01.464Z,4.70
2019-03-23T20:16:37.054Z,4.80
2019-03-23T20:19:10.453Z,4.70
2019-03-23T20:21:44.159Z,4.80
2019-03-23T20:24:19.215Z,4.60
2019-03-23T20:26:54.745Z,4.70
2019-03-23T20:29:31.113Z,4.70
2019-03-23T20:32:04.912Z,4.40
2019-03-23T20:34:38.446Z,4.30
2019-03-23T20:37:14.314Z,4.40
2019-03-23T20:39:52.363Z,4.30
2019-03-23T20:42:28.015Z,4.10
2019-03-23T20:45:09.838Z,4.30
2019-03-23T20:47:43.180Z,4.30
2019-03-23T20:50:19.536Z,4.30
2019-03-23T20:52:53.034Z,4.20
2019-03-23T20:55:29.168Z,4.10
2019-03-23T20:58:04.214Z,4.10
2019-03-23T21:00:38.129Z,4.00
2019-03-23T21:03:11.569Z,4.10
2019-03-23T21:05:45.379Z,4.10
2019-03-23T21:08:21.133Z,4.10
2019-03-23T21:10:58.048Z,4.00
2019-03-23T21:13:32.952Z,3.90
2019-03-23T21:16:06.653Z,3.90
2019-03-23T21:18:40.335Z,3.90
2019-03-23T21:21:13.698Z,3.80
2019-03-23T21:23:47.031Z,3.90
2019-03-23T21:26:22.327Z,3.90
2019-03-23T21:28:55.798Z,3.90
2019-03-23T21:31:29.519Z,3.80
2019-03-23T21:34:07.873Z,3.80
2019-03-23T21:36:43.977Z,3.70
2019-03-23T21:39:21.408Z,3.70
2019-03-23T21:41:55.128Z,3.70
2019-03-23T21:44:31.295Z,3.60
2019-03-23T21:47:06.432Z,3.70
2019-03-23T21:49:39.785Z,3.60
2019-03-23T21:52:13.728Z,3.50
2019-03-23T21:54:52.947Z,3.50
2019-03-23T21:57:26.486Z,3.40
2019-03-23T22:00:01.486Z,3.50
2019-03-23T22:02:38.480Z,3.40
2019-03-23T22:05:12.697Z,3.40
2019-03-23T22:07:46.044Z,3.40
2019-03-23T22:10:22.523Z,3.30
2019-03-23T22:12:56.030Z,3.40
2019-03-23T22:15:31.164Z,3.30
2019-03-23T22:18:04.841Z,3.20
2019-03-23T22:20:39.636Z,3.30
2019-03-23T22:23:16.585Z,3.30
2019-03-23T22:25:50.311Z,3.20
2019-03-23T22:28:26.765Z,3.20
2019-03-23T22:31:01.733Z,3.20
2019-03-23T22:33:35.354Z,3.20
2019-03-23T22:36:10.065Z,3.20
2019-03-23T22:38:43.723Z,3.10
2019-03-23T22:41:36.187Z,3.10
2019-03-23T22:44:09.594Z,3.00
2019-03-23T22:46:44.349Z,2.90
2019-03-23T22:49:18.854Z,2.90
2019-03-23T22:51:52.782Z,3.10
2019-03-23T22:54:26.203Z,3.10
2019-03-23T22:56:59.563Z,3.10
2019-03-23T22:59:32.986Z,3.10
2019-03-23T23:02:11.840Z,3.10
2019-03-23T23:04:46.259Z,3.10
2019-03-23T23:07:19.631Z,3.10
2019-03-23T23:09:53.021Z,3.00
2019-03-23T23:12:26.404Z,3.10
2019-03-23T23:15:04.453Z,3.10
2019-03-23T23:17:35.899Z,2.90
2019-03-23T23:20:10.094Z,2.90
2019-03-23T23:22:45.176Z,2.60
2019-03-23T23:25:18.566Z,2.70
2019-03-23T23:27:52.035Z,2.80
2019-03-23T23:30:25.512Z,2.80
2019-03-23T23:32:58.944Z,2.80
2019-03-23T23:35:32.384Z,2.90
2019-03-23T23:38:07.032Z,3.00
2019-03-23T23:40:40.644Z,3.10
2019-03-23T23:43:14.003Z,3.10
2019-03-23T23:45:47.422Z,3.20
2019-03-23T23:48:22.502Z,3.00
2019-03-23T23:53:48.631Z,3.20
2019-03-23T23:59:13.914Z,3.10
